Time;durP1;ratioP1;P1;durP2;ratioP2;P2;SDS_P1;SDS_P2;PMS_P1;PMS_P2;Temp;Humidity;BMP_temperature;BMP_pressure;BME280_temperature;BME280_humidity;BME280_pressure;Samples;Min_cycle;Max_cycle;Signal;HPM_P1;HPM_P2
2022/03/17 00:01:25;;;;;;;45.78;26.33;;;8.20;98.90;;;;;;5006532;28;20473;-63
2022/03/17 00:03:51;;;;;;;48.10;27.05;;;8.20;98.90;;;;;;5010237;28;20108;-64
2022/03/17 00:06:17;;;;;;;45.40;26.92;;;8.30;98.90;;;;;;5009200;28;20338;-63
2022/03/17 00:08:42;;;;;;;46.63;26.98;;;8.20;98.80;;;;;;5010584;28;20136;-64
2022/03/17 00:11:08;;;;;;;46.13;26.50;;;8.20;98.80;;;;;;5003357;28;20034;-63
2022/03/17 00:13:34;;;;;;;46.63;27.95;;;8.20;98.80;;;;;;5010046;28;20068;-63
2022/03/17 00:15:59;;;;;;;48.53;26.75;;;8.20;98.80;;;;;;4997831;28;20034;-63
2022/03/17 00:18:25;;;;;;;49.83;26.92;;;8.20;98.80;;;;;;4994681;28;20038;-63
2022/03/17 00:20:50;;;;;;;45.10;25.45;;;8.20;98.70;;;;;;5008522;28;20346;-63
2022/03/17 00:23:16;;;;;;;42.28;24.77;;;8.20;98.70;;;;;;5012383;28;20061;-63
2022/03/17 00:25:42;;;;;;;50.08;27.05;;;8.20;98.70;;;;;;5011670;28;20050;-63
2022/03/17 00:28:07;;;;;;;46.50;26.73;;;8.10;98.70;;;;;;5013794;28;20432;-63
2022/03/17 00:30:33;;;;;;;45.58;26.23;;;8.10;98.70;;;;;;5005520;28;20037;-64
2022/03/17 00:32:59;;;;;;;47.45;27.67;;;8.10;98.70;;;;;;5003686;28;20034;-63
2022/03/17 00:35:38;;;;;;;47.38;26.27;;;8.10;98.70;;;;;;5012981;28;20507;-63
2022/03/17 00:38:10;;;;;;;48.22;27.88;;;8.10;98.70;;;;;;5013629;28;20022;-63
2022/03/17 00:40:37;;;;;;;47.80;27.42;;;8.10;98.70;;;;;;5011271;28;20072;-62
2022/03/17 00:43:08;;;;;;;49.80;26.83;;;8.10;98.60;;;;;;5013376;28;20033;-62
2022/03/17 00:45:34;;;;;;;48.08;27.15;;;8.10;98.70;;;;;;4995498;28;20417;-63
2022/03/17 00:48:00;;;;;;;47.45;26.30;;;8.10;98.60;;;;;;5005776;28;20026;-63
2022/03/17 00:50:26;;;;;;;48.55;27.17;;;8.00;98.60;;;;;;4995538;28;20042;-63
2022/03/17 00:52:52;;;;;;;46.80;29.08;;;8.10;98.60;;;;;;4999731;28;20033;-63
2022/03/17 00:55:18;;;;;;;43.85;26.58;;;8.00;98.60;;;;;;4993447;28;20239;-64
2022/03/17 00:57:44;;;;;;;44.10;26.40;;;8.10;98.90;;;;;;5013621;28;20030;-63
2022/03/17 01:00:14;;;;;;;48.72;27.50;;;8.00;98.60;;;;;;5011670;28;20037;-64
2022/03/17 01:02:41;;;;;;;47.53;27.17;;;8.00;98.60;;;;;;5013126;28;20123;-63
2022/03/17 01:05:07;;;;;;;43.92;26.63;;;8.00;98.60;;;;;;5012181;28;20081;-64
2022/03/17 01:07:33;;;;;;;52.00;30.95;;;8.00;98.60;;;;;;5012552;28;20025;-63
2022/03/17 01:09:59;;;;;;;48.97;28.25;;;8.00;98.60;;;;;;5012852;28;20045;-64
2022/03/17 01:12:24;;;;;;;50.40;28.42;;;8.00;98.60;;;;;;5011472;28;20450;-63
2022/03/17 01:14:50;;;;;;;55.55;30.73;;;8.00;98.60;;;;;;4997858;28;20022;-63
2022/03/17 01:17:16;;;;;;;49.17;28.90;;;7.90;98.60;;;;;;5008385;28;20022;-64
2022/03/17 01:19:41;;;;;;;49.83;29.23;;;7.90;98.60;;;;;;4998582;28;20030;-63
2022/03/17 01:22:07;;;;;;;45.38;26.95;;;7.90;98.60;;;;;;4993449;28;20093;-64
2022/03/17 01:24:33;;;;;;;46.70;27.55;;;7.90;98.70;;;;;;4996438;28;20031;-64
2022/03/17 01:26:58;;;;;;;48.58;28.35;;;7.90;98.60;;;;;;5001775;28;20040;-63
2022/03/17 01:29:25;;;;;;;50.40;27.25;;;7.80;98.60;;;;;;5011777;28;20033;-63
2022/03/17 01:31:51;;;;;;;47.80;27.05;;;7.80;98.60;;;;;;4995576;28;20045;-63
2022/03/17 01:34:17;;;;;;;48.80;27.48;;;7.80;98.60;;;;;;4993261;28;20023;-63
2022/03/17 01:36:43;;;;;;;49.00;28.23;;;7.80;98.70;;;;;;4998454;28;20022;-64
2022/03/17 01:39:08;;;;;;;52.53;30.10;;;7.90;98.70;;;;;;4993174;28;20109;-63
2022/03/17 01:41:34;;;;;;;49.33;28.40;;;7.80;98.70;;;;;;4994438;28;20102;-63
2022/03/17 01:43:59;;;;;;;51.22;28.95;;;7.90;98.70;;;;;;4993991;28;20421;-64
2022/03/17 01:46:25;;;;;;;51.33;28.65;;;7.80;98.60;;;;;;5008023;28;20092;-63
2022/03/17 01:48:50;;;;;;;48.97;29.42;;;7.90;98.70;;;;;;5011328;28;20109;-63
2022/03/17 01:51:16;;;;;;;46.90;26.83;;;7.90;98.60;;;;;;5011474;28;20045;-63
2022/03/17 01:53:42;;;;;;;52.28;29.55;;;7.80;98.60;;;;;;4994237;28;20053;-63
2022/03/17 01:56:07;;;;;;;50.55;27.92;;;7.80;98.60;;;;;;4992376;28;20069;-64
2022/03/17 01:58:33;;;;;;;54.22;30.27;;;7.80;98.60;;;;;;4993245;28;20026;-63
2022/03/17 02:00:59;;;;;;;47.97;28.23;;;7.80;98.60;;;;;;4993382;28;20113;-63
2022/03/17 02:03:27;;;;;;;50.45;28.23;;;7.80;98.60;;;;;;4992406;28;20129;-62
2022/03/17 02:05:55;;;;;;;52.95;28.98;;;7.80;98.60;;;;;;5004471;28;20144;-65
2022/03/17 02:08:21;;;;;;;51.00;28.65;;;7.80;98.60;;;;;;4993122;28;20757;-63
2022/03/17 02:13:31;;;;;;;53.47;29.70;;;7.70;98.60;;;;;;4992316;28;20026;-62
2022/03/17 02:15:57;;;;;;;52.15;30.25;;;7.70;98.50;;;;;;4995901;28;20045;-63
2022/03/17 02:18:23;;;;;;;54.50;31.17;;;7.70;98.60;;;;;;4991983;28;20028;-63
2022/03/17 02:20:49;;;;;;;48.65;29.20;;;7.70;98.60;;;;;;4997526;28;20049;-62
2022/03/17 02:26:02;;;;;;;51.40;30.35;;;7.60;98.60;;;;;;5009275;28;20393;-63
2022/03/17 02:28:30;;;;;;;55.88;30.25;;;7.60;98.60;;;;;;4992506;28;20035;-63
2022/03/17 02:30:56;;;;;;;52.80;30.58;;;7.60;98.60;;;;;;4992080;28;20034;-63
2022/03/17 02:33:22;;;;;;;51.60;31.63;;;7.60;98.60;;;;;;4991896;28;20031;-62
2022/03/17 02:35:49;;;;;;;49.85;30.05;;;7.60;98.60;;;;;;4996255;28;20048;-63
2022/03/17 02:38:16;;;;;;;60.00;32.15;;;7.50;98.60;;;;;;5009623;28;20026;-63
2022/03/17 02:40:44;;;;;;;56.28;31.75;;;7.50;98.60;;;;;;4997160;28;20026;-62
2022/03/17 02:43:11;;;;;;;55.03;31.02;;;7.60;98.80;;;;;;4991599;28;20026;-63
2022/03/17 02:45:37;;;;;;;52.53;29.75;;;7.50;98.50;;;;;;4992662;28;20032;-62
2022/03/17 02:48:04;;;;;;;58.85;32.75;;;7.50;98.50;;;;;;4992263;28;20027;-63
2022/03/17 02:50:29;;;;;;;52.38;29.98;;;7.50;98.50;;;;;;5002340;28;20066;-63
2022/03/17 02:52:56;;;;;;;52.15;30.83;;;7.40;98.50;;;;;;5010304;28;20045;-63
2022/03/17 02:55:22;;;;;;;60.25;33.00;;;7.40;98.50;;;;;;5009330;28;20037;-63
2022/03/17 02:57:50;;;;;;;52.20;30.58;;;7.40;98.60;;;;;;4992043;28;20469;-63
2022/03/17 03:00:16;;;;;;;54.83;31.75;;;7.40;98.50;;;;;;5001512;28;20413;-63
2022/03/17 03:02:43;;;;;;;53.92;31.13;;;7.30;98.50;;;;;;5010780;28;20422;-63
2022/03/17 03:05:09;;;;;;;54.50;30.77;;;7.40;98.60;;;;;;5011206;28;20099;-63
2022/03/17 03:07:36;;;;;;;55.88;31.02;;;7.30;98.50;;;;;;5011151;28;20018;-63
2022/03/17 03:10:02;;;;;;;55.05;31.85;;;7.30;98.50;;;;;;5006947;28;20041;-63
2022/03/17 03:12:27;;;;;;;56.85;33.05;;;7.40;98.50;;;;;;5010267;28;20026;-63
2022/03/17 03:14:53;;;;;;;52.40;30.98;;;7.30;98.40;;;;;;5009558;28;20053;-63
2022/03/17 03:17:20;;;;;;;55.28;32.78;;;7.40;98.40;;;;;;5010059;28;20533;-63
2022/03/17 03:19:46;;;;;;;54.95;31.48;;;7.30;98.40;;;;;;5002341;28;20061;-63
2022/03/17 03:22:12;;;;;;;51.80;31.38;;;7.30;98.40;;;;;;5007215;28;20033;-64
2022/03/17 03:24:37;;;;;;;51.03;31.23;;;7.30;98.40;;;;;;4996769;28;20088;-63
2022/03/17 03:27:03;;;;;;;55.00;33.03;;;7.40;98.40;;;;;;4991420;28;20413;-63
2022/03/17 03:29:29;;;;;;;53.38;31.63;;;7.30;98.30;;;;;;5005030;28;20029;-63
2022/03/17 03:32:00;;;;;;;53.22;32.10;;;7.30;98.30;;;;;;4996358;28;20121;-63
2022/03/17 03:34:28;;;;;;;54.13;31.10;;;7.30;98.30;;;;;;5004163;28;20060;-63
2022/03/17 03:39:38;;;;;;;57.60;32.10;;;7.30;98.30;;;;;;5005224;28;20095;-62
2022/03/17 03:42:05;;;;;;;59.03;33.22;;;7.30;98.30;;;;;;5008820;28;20042;-63
2022/03/17 03:44:31;;;;;;;56.08;32.35;;;7.30;98.20;;;;;;5010828;28;20029;-63
2022/03/17 03:46:56;;;;;;;56.42;33.30;;;7.30;98.20;;;;;;5009975;28;20037;-63
2022/03/17 03:49:22;;;;;;;56.78;34.25;;;7.40;98.20;;;;;;5013096;28;20028;-62
2022/03/17 03:51:48;;;;;;;60.17;35.78;;;7.30;98.20;;;;;;5013049;28;20061;-63
2022/03/17 03:54:15;;;;;;;59.33;34.85;;;7.30;98.10;;;;;;5014241;28;20022;-63
2022/03/17 03:56:48;;;;;;;60.00;34.72;;;7.30;98.00;;;;;;5002277;28;20462;-63
2022/03/17 03:59:20;;;;;;;58.00;33.50;;;7.30;98.00;;;;;;5002208;28;20045;-63
2022/03/17 04:01:50;;;;;;;56.95;34.85;;;7.30;98.10;;;;;;5013646;28;20431;-63
2022/03/17 04:04:20;;;;;;;59.88;34.35;;;7.30;98.00;;;;;;5014334;28;20041;-63
2022/03/17 04:06:48;;;;;;;58.20;34.35;;;7.20;98.00;;;;;;5011933;28;20392;-63
2022/03/17 04:09:14;;;;;;;60.47;34.10;;;7.20;98.00;;;;;;5014350;28;20018;-63
2022/03/17 04:11:41;;;;;;;61.15;35.28;;;7.20;98.00;;;;;;5011144;28;20030;-63
2022/03/17 04:14:07;;;;;;;55.38;35.25;;;7.20;98.00;;;;;;5014193;28;20112;-63
2022/03/17 04:16:34;;;;;;;59.00;34.40;;;7.20;98.00;;;;;;5009778;28;20044;-62
2022/03/17 04:18:59;;;;;;;61.95;34.10;;;7.20;97.90;;;;;;4995861;28;20445;-62
2022/03/17 04:21:25;;;;;;;61.55;34.33;;;7.20;97.90;;;;;;5003907;28;20105;-63
2022/03/17 04:23:50;;;;;;;57.47;35.33;;;7.30;97.90;;;;;;5014255;28;20030;-63
2022/03/17 04:26:16;;;;;;;56.30;34.42;;;7.20;98.10;;;;;;5012560;28;20025;-63
2022/03/17 04:28:42;;;;;;;58.00;35.55;;;7.20;97.90;;;;;;5013891;28;20026;-63
2022/03/17 04:31:07;;;;;;;58.83;34.42;;;7.20;97.90;;;;;;5003976;28;20038;-63
2022/03/17 04:33:33;;;;;;;57.83;34.05;;;7.20;97.90;;;;;;5005256;28;20057;-63
2022/03/17 04:35:58;;;;;;;54.78;33.60;;;7.10;97.80;;;;;;5004006;28;20105;-63
2022/03/17 04:38:25;;;;;;;61.65;35.85;;;7.10;97.80;;;;;;5013982;28;20021;-63
2022/03/17 04:40:50;;;;;;;63.72;36.90;;;7.10;97.80;;;;;;5008384;28;20031;-64
2022/03/17 04:43:17;;;;;;;60.50;34.88;;;7.10;97.80;;;;;;5011179;28;20029;-63
2022/03/17 04:45:44;;;;;;;61.75;37.00;;;7.20;97.80;;;;;;5011841;28;20116;-63
2022/03/17 04:48:10;;;;;;;60.05;35.67;;;7.10;97.80;;;;;;5013546;28;20034;-63
2022/03/17 04:50:36;;;;;;;62.13;36.58;;;7.10;97.80;;;;;;5012006;28;20048;-63
2022/03/17 04:55:45;;;;;;;65.28;37.33;;;7.10;97.80;;;;;;5008810;28;20030;-63
2022/03/17 04:58:11;;;;;;;62.80;35.45;;;7.10;97.80;;;;;;5008537;28;20037;-62
2022/03/17 05:00:36;;;;;;;61.50;35.15;;;7.10;97.80;;;;;;5008571;28;20421;-64
2022/03/17 05:03:02;;;;;;;64.65;37.53;;;7.10;97.80;;;;;;5000559;28;20125;-63
2022/03/17 05:05:28;;;;;;;61.00;38.10;;;7.10;97.80;;;;;;5012184;28;20421;-63
2022/03/17 05:07:57;;;;;;;60.40;36.45;;;7.10;97.70;;;;;;5012992;28;20066;-63
2022/03/17 05:10:23;;;;;;;62.50;37.30;;;7.10;97.70;;;;;;5011853;28;20080;-63
2022/03/17 05:12:48;;;;;;;59.72;36.70;;;7.20;97.80;;;;;;4994499;28;20062;-63
2022/03/17 05:15:14;;;;;;;62.58;37.80;;;7.10;97.70;;;;;;4993541;28;20027;-63
2022/03/17 05:17:40;;;;;;;62.47;37.40;;;7.10;97.70;;;;;;5012866;28;20386;-62
2022/03/17 05:20:11;;;;;;;63.60;38.30;;;7.10;97.70;;;;;;5012053;28;20057;-63
2022/03/17 05:22:37;;;;;;;61.25;36.15;;;7.10;97.70;;;;;;5011653;28;20060;-63
2022/03/17 05:25:04;;;;;;;63.13;36.17;;;7.20;97.70;;;;;;5013070;28;20022;-63
2022/03/17 05:27:30;;;;;;;63.40;38.28;;;7.20;97.70;;;;;;5007823;28;20040;-62
2022/03/17 05:29:55;;;;;;;59.42;37.25;;;7.20;97.70;;;;;;5000708;28;20030;-63
2022/03/17 05:32:21;;;;;;;64.93;38.65;;;7.10;97.60;;;;;;5002337;28;20052;-63
2022/03/17 05:34:46;;;;;;;65.25;39.45;;;7.20;97.60;;;;;;5013276;28;20048;-63
2022/03/17 05:37:12;;;;;;;70.63;40.17;;;7.20;97.60;;;;;;4996753;28;20023;-64
2022/03/17 05:39:37;;;;;;;65.05;39.58;;;7.20;97.60;;;;;;4992141;28;20143;-63
2022/03/17 05:42:03;;;;;;;63.38;38.72;;;7.10;97.60;;;;;;5006438;28;20494;-63
2022/03/17 05:44:29;;;;;;;72.63;41.95;;;7.10;97.60;;;;;;5012925;28;20072;-64
2022/03/17 05:46:54;;;;;;;66.07;38.67;;;7.20;97.60;;;;;;5007921;28;20057;-63
2022/03/17 05:49:20;;;;;;;61.95;38.55;;;7.20;97.60;;;;;;5012300;28;20018;-63
2022/03/17 05:51:45;;;;;;;71.95;39.97;;;7.20;97.60;;;;;;4999523;28;20038;-63
2022/03/17 05:54:11;;;;;;;65.40;40.58;;;7.20;97.50;;;;;;4992863;28;20023;-63
2022/03/17 05:56:36;;;;;;;66.90;38.85;;;7.20;97.70;;;;;;5003992;28;20025;-63
2022/03/17 05:59:02;;;;;;;73.15;42.13;;;7.20;97.50;;;;;;5012650;28;20097;-62
2022/03/17 06:01:27;;;;;;;65.38;40.42;;;7.20;97.50;;;;;;5004793;28;23196;-62
2022/03/17 06:03:53;;;;;;;68.80;42.92;;;7.30;97.50;;;;;;5006754;28;20030;-64
2022/03/17 06:06:19;;;;;;;69.63;40.58;;;7.30;97.50;;;;;;5000039;28;20038;-63
2022/03/17 06:08:44;;;;;;;71.75;42.00;;;7.30;97.40;;;;;;4996398;28;20029;-63
2022/03/17 06:11:10;;;;;;;70.53;42.88;;;7.30;97.40;;;;;;4997912;28;20041;-63
2022/03/17 06:13:35;;;;;;;75.43;43.53;;;7.30;97.30;;;;;;5005372;28;20380;-63
2022/03/17 06:16:01;;;;;;;71.28;42.63;;;7.40;97.40;;;;;;5000887;28;20038;-63
2022/03/17 06:18:26;;;;;;;71.00;41.53;;;7.40;97.30;;;;;;4999530;28;20030;-63
2022/03/17 06:20:52;;;;;;;68.00;39.35;;;7.40;97.30;;;;;;5001734;28;20072;-63
2022/03/17 06:23:17;;;;;;;70.53;43.42;;;7.40;97.30;;;;;;5006396;28;20129;-63
2022/03/17 06:25:43;;;;;;;68.70;41.05;;;7.40;97.20;;;;;;4992814;28;20520;-63
2022/03/17 06:28:09;;;;;;;69.70;41.10;;;7.40;97.20;;;;;;5003847;28;20041;-63
2022/03/17 06:30:35;;;;;;;72.75;42.33;;;7.50;97.20;;;;;;5010206;28;20030;-63
2022/03/17 06:33:02;;;;;;;71.85;42.08;;;7.50;97.20;;;;;;5007993;28;20030;-63
2022/03/17 06:35:28;;;;;;;68.85;41.63;;;7.40;97.20;;;;;;5024642;28;20057;-63
2022/03/17 06:37:56;;;;;;;70.10;41.53;;;7.50;97.20;;;;;;5006224;28;20025;-63
2022/03/17 06:40:23;;;;;;;73.10;43.17;;;7.50;97.20;;;;;;5020092;28;20113;-63
2022/03/17 06:42:49;;;;;;;69.55;43.25;;;7.50;97.20;;;;;;5004248;28;20064;-63
2022/03/17 06:45:15;;;;;;;68.43;40.80;;;7.50;97.10;;;;;;5004004;28;20045;-63
2022/03/17 06:47:41;;;;;;;69.90;44.33;;;7.60;97.10;;;;;;4997785;28;20061;-63
2022/03/17 06:50:09;;;;;;;73.10;42.78;;;7.50;97.00;;;;;;5004122;28;20035;-64
2022/03/17 06:52:34;;;;;;;69.40;41.88;;;7.60;97.00;;;;;;5007740;28;20092;-63
2022/03/17 06:55:00;;;;;;;72.40;40.83;;;7.60;97.10;;;;;;5002625;28;20022;-63
2022/03/17 06:57:26;;;;;;;71.40;43.63;;;7.60;97.10;;;;;;4991544;28;20054;-63
2022/03/17 06:59:51;;;;;;;72.57;42.95;;;7.60;97.10;;;;;;4990760;28;20481;-63
2022/03/17 07:02:18;;;;;;;72.90;42.95;;;7.60;97.10;;;;;;5004371;28;20041;-63
2022/03/17 07:04:43;;;;;;;69.05;40.88;;;7.60;97.10;;;;;;5002002;28;20054;-63
2022/03/17 07:07:09;;;;;;;66.82;40.42;;;7.70;97.00;;;;;;5008684;28;20030;-63
2022/03/17 07:09:35;;;;;;;68.25;43.00;;;7.80;97.00;;;;;;5009997;28;20034;-63
2022/03/17 07:12:02;;;;;;;70.80;42.03;;;7.70;97.00;;;;;;5004033;28;20025;-63
2022/03/17 07:14:27;;;;;;;71.32;43.85;;;7.80;97.00;;;;;;5003090;28;20034;-63
2022/03/17 07:16:53;;;;;;;68.95;42.40;;;7.80;96.90;;;;;;4994192;28;20474;-63
2022/03/17 07:19:18;;;;;;;68.28;43.10;;;7.90;96.90;;;;;;4990909;28;20083;-63
2022/03/17 07:21:44;;;;;;;70.43;43.22;;;7.90;96.90;;;;;;4999114;28;20390;-62
2022/03/17 07:24:09;;;;;;;71.47;42.95;;;7.90;96.90;;;;;;4991997;28;20030;-63
2022/03/17 07:26:36;;;;;;;71.78;43.97;;;8.00;96.90;;;;;;5006118;28;20025;-65
2022/03/17 07:29:02;;;;;;;71.85;44.22;;;8.00;96.90;;;;;;5010112;28;20105;-63
2022/03/17 07:31:28;;;;;;;76.85;45.63;;;8.00;97.00;;;;;;5007211;28;20042;-63
2022/03/17 07:33:54;;;;;;;70.43;42.90;;;8.10;96.80;;;;;;5003775;28;20154;-63
2022/03/17 07:36:20;;;;;;;74.63;45.50;;;8.10;96.70;;;;;;4998699;28;20066;-64
2022/03/17 07:38:46;;;;;;;79.22;46.10;;;8.10;96.70;;;;;;4996402;28;20136;-64
2022/03/17 07:41:13;;;;;;;71.65;44.10;;;8.20;96.70;;;;;;5001495;28;20068;-64
2022/03/17 07:43:41;;;;;;;70.68;43.95;;;8.30;96.70;;;;;;5006058;28;20025;-64
2022/03/17 07:46:06;;;;;;;71.00;43.70;;;8.30;96.50;;;;;;5009813;28;20058;-64
2022/03/17 07:48:32;;;;;;;67.28;43.50;;;8.40;96.50;;;;;;4999931;28;20439;-63
2022/03/17 07:50:57;;;;;;;69.22;43.95;;;8.40;96.50;;;;;;5000403;28;20472;-63
2022/03/17 07:53:23;;;;;;;71.72;44.70;;;8.50;96.40;;;;;;5000917;28;20027;-63
2022/03/17 07:55:54;;;;;;;72.68;44.17;;;8.50;96.50;;;;;;5008141;28;20559;-63
2022/03/17 07:58:24;;;;;;;66.07;43.75;;;8.60;96.50;;;;;;5005065;28;20356;-63
2022/03/17 08:00:55;;;;;;;75.55;45.40;;;8.70;96.60;;;;;;5006641;28;20034;-63
2022/03/17 08:03:21;;;;;;;73.82;45.42;;;8.80;96.50;;;;;;5000040;28;20045;-64
2022/03/17 08:05:48;;;;;;;71.68;44.13;;;8.90;96.40;;;;;;5003302;28;20033;-64
2022/03/17 08:08:17;;;;;;;74.88;43.88;;;8.90;96.30;;;;;;5009788;28;20064;-65
2022/03/17 08:10:43;;;;;;;68.55;44.35;;;8.90;96.30;;;;;;5012685;28;20045;-64
2022/03/17 08:13:09;;;;;;;72.85;44.75;;;9.10;96.30;;;;;;5005922;28;20109;-63
2022/03/17 08:15:36;;;;;;;71.68;44.67;;;9.10;96.20;;;;;;5002223;28;20114;-64
2022/03/17 08:18:03;;;;;;;69.50;45.95;;;9.20;96.10;;;;;;5009773;28;20033;-64
2022/03/17 08:20:28;;;;;;;77.43;46.38;;;9.30;96.00;;;;;;5003062;28;20049;-63
2022/03/17 08:22:55;;;;;;;73.03;45.47;;;9.30;95.90;;;;;;5003920;28;20034;-63
2022/03/17 08:25:20;;;;;;;72.05;45.20;;;9.40;95.90;;;;;;4992253;28;20569;-63
2022/03/17 08:27:46;;;;;;;73.65;46.08;;;9.40;95.90;;;;;;4990818;28;20073;-63
2022/03/17 08:30:12;;;;;;;75.15;46.53;;;9.50;95.60;;;;;;5000322;28;20041;-63
2022/03/17 08:32:39;;;;;;;71.95;46.72;;;9.50;95.40;;;;;;5009522;28;20037;-63
2022/03/17 08:35:05;;;;;;;69.85;44.70;;;9.60;95.40;;;;;;5009481;28;20045;-63
2022/03/17 08:37:30;;;;;;;73.25;45.25;;;9.60;95.30;;;;;;5011442;28;20486;-63
2022/03/17 08:39:56;;;;;;;68.90;45.13;;;9.70;95.20;;;;;;5004176;28;20034;-63
2022/03/17 08:42:21;;;;;;;66.13;43.72;;;9.70;95.20;;;;;;5006276;28;20029;-63
2022/03/17 08:44:47;;;;;;;67.65;44.15;;;9.80;94.80;;;;;;5003360;28;20023;-64
2022/03/17 08:49:56;;;;;;;72.53;44.27;;;9.80;94.70;;;;;;4999794;28;20030;-63
2022/03/17 08:52:22;;;;;;;66.97;42.25;;;9.80;94.60;;;;;;4997341;28;20079;-63
2022/03/17 08:54:48;;;;;;;64.28;42.53;;;9.90;94.60;;;;;;4995258;28;20058;-64
2022/03/17 08:57:13;;;;;;;68.15;41.55;;;9.90;94.60;;;;;;5006406;28;20112;-63
2022/03/17 08:59:39;;;;;;;70.97;45.47;;;10.00;94.60;;;;;;5012398;28;20561;-63
2022/03/17 09:02:08;;;;;;;69.75;43.70;;;10.10;94.40;;;;;;5003368;28;20656;-63
2022/03/17 09:04:34;;;;;;;67.50;43.20;;;10.10;94.20;;;;;;4998115;28;20069;-64
2022/03/17 09:07:01;;;;;;;68.40;45.70;;;10.20;94.30;;;;;;5007518;28;20382;-64
2022/03/17 09:09:28;;;;;;;71.63;45.22;;;10.20;94.20;;;;;;5008380;28;20034;-64
2022/03/17 09:11:54;;;;;;;73.57;46.38;;;10.30;94.10;;;;;;5005693;28;20038;-64
2022/03/17 09:14:21;;;;;;;73.22;47.05;;;10.30;94.00;;;;;;5007583;28;20113;-63
2022/03/17 09:16:46;;;;;;;69.57;44.13;;;10.30;93.80;;;;;;5010014;28;20037;-64
2022/03/17 09:19:12;;;;;;;72.53;45.72;;;10.40;93.80;;;;;;4995349;28;20026;-63
2022/03/17 09:21:37;;;;;;;79.30;46.45;;;10.50;93.70;;;;;;4997695;28;20389;-63
2022/03/17 09:24:03;;;;;;;75.10;47.92;;;10.50;93.60;;;;;;5011044;28;20049;-64
2022/03/17 09:26:30;;;;;;;69.63;45.78;;;10.60;93.50;;;;;;4994537;28;20575;-63
2022/03/17 09:28:55;;;;;;;73.18;46.72;;;10.60;93.40;;;;;;5010859;28;20042;-63
2022/03/17 09:31:22;;;;;;;69.90;45.95;;;10.70;93.40;;;;;;5008828;28;20072;-64
2022/03/17 09:33:48;;;;;;;75.80;49.25;;;10.80;93.40;;;;;;5005477;28;20051;-65
2022/03/17 09:36:13;;;;;;;77.20;45.88;;;10.80;93.20;;;;;;4994335;28;20613;-65
2022/03/17 09:38:40;;;;;;;66.60;44.33;;;10.80;93.00;;;;;;5002686;28;20378;-64
2022/03/17 09:41:23;;;;;;;69.40;46.30;;;10.90;93.00;;;;;;5010663;28;20466;-64
2022/03/17 09:43:50;;;;;;;68.93;45.92;;;10.90;92.90;;;;;;5008630;28;20058;-65
2022/03/17 09:46:17;;;;;;;69.18;46.70;;;11.00;92.70;;;;;;4992851;28;20117;-64
2022/03/17 09:48:44;;;;;;;71.65;47.50;;;11.00;92.70;;;;;;4993154;28;20154;-65
2022/03/17 09:51:11;;;;;;;71.82;47.83;;;11.10;92.80;;;;;;5000214;28;20057;-63
2022/03/17 09:53:37;;;;;;;72.93;48.03;;;11.20;92.70;;;;;;4998435;28;20481;-64
2022/03/17 09:56:03;;;;;;;71.22;47.50;;;11.20;92.60;;;;;;5004778;28;20042;-63
2022/03/17 09:58:28;;;;;;;72.68;47.83;;;11.30;92.40;;;;;;5004341;28;20036;-64
2022/03/17 10:00:55;;;;;;;76.90;46.47;;;11.40;92.30;;;;;;5018957;28;20038;-64
2022/03/17 10:03:22;;;;;;;64.53;41.60;;;11.40;92.10;;;;;;5021759;28;20508;-64
2022/03/17 10:05:49;;;;;;;62.47;41.75;;;11.40;91.80;;;;;;5011372;28;20389;-64
2022/03/17 10:08:16;;;;;;;67.22;44.63;;;11.50;91.70;;;;;;5001661;28;20026;-64
2022/03/17 10:10:43;;;;;;;63.53;42.95;;;11.60;91.50;;;;;;4998123;28;20026;-64
2022/03/17 10:13:19;;;;;;;65.70;44.58;;;11.50;91.60;;;;;;5002323;28;20053;-63
2022/03/17 10:15:47;;;;;;;67.10;44.05;;;11.60;91.30;;;;;;5010952;28;20136;-64
2022/03/17 10:18:25;;;;;;;59.22;40.92;;;11.60;91.30;;;;;;4999167;28;20104;-64
2022/03/17 10:21:11;;;;;;;68.15;43.50;;;11.70;91.30;;;;;;5009830;28;20033;-64
2022/03/17 10:23:48;;;;;;;60.15;40.92;;;11.70;91.10;;;;;;5004344;28;20034;-64
2022/03/17 10:26:37;;;;;;;53.65;37.72;;;11.80;91.00;;;;;;5004142;28;20026;-64
2022/03/17 10:29:05;;;;;;;56.47;37.78;;;11.90;91.10;;;;;;5003115;28;20517;-64
2022/03/17 10:31:31;;;;;;;56.90;38.47;;;11.90;90.80;;;;;;4999897;28;20178;-64
2022/03/17 10:33:57;;;;;;;56.70;39.33;;;11.90;90.70;;;;;;4991919;28;20026;-64
2022/03/17 10:36:22;;;;;;;57.40;38.25;;;12.00;90.50;;;;;;5006320;28;20025;-64
2022/03/17 10:38:51;;;;;;;58.40;39.60;;;12.10;90.60;;;;;;4993243;28;20046;-64
2022/03/17 10:41:17;;;;;;;65.75;43.00;;;12.20;90.50;;;;;;4997325;28;20124;-64
2022/03/17 10:43:43;;;;;;;59.90;42.03;;;12.30;90.30;;;;;;5025790;28;20430;-64
2022/03/17 10:46:20;;;;;;;62.25;40.60;;;12.30;90.10;;;;;;5001623;28;20025;-64
2022/03/17 10:48:52;;;;;;;63.22;42.95;;;12.40;90.10;;;;;;5005207;28;20036;-64
2022/03/17 10:51:43;;;;;;;66.10;44.75;;;12.40;90.00;;;;;;5001313;28;20034;-64
2022/03/17 10:54:10;;;;;;;62.50;44.28;;;12.50;89.60;;;;;;5014181;28;20034;-64
2022/03/17 10:56:38;;;;;;;59.78;41.00;;;12.60;89.60;;;;;;5011527;28;20378;-65
2022/03/17 10:59:05;;;;;;;63.40;42.10;;;12.60;89.50;;;;;;5009542;28;20424;-65
2022/03/17 11:01:35;;;;;;;62.25;42.40;;;12.70;88.90;;;;;;5007640;28;20513;-65
2022/03/17 11:04:02;;;;;;;59.08;42.53;;;12.70;88.10;;;;;;5009366;28;20045;-63
2022/03/17 11:06:28;;;;;;;61.47;41.45;;;12.80;88.40;;;;;;5010424;28;20030;-64
2022/03/17 11:08:55;;;;;;;58.47;41.30;;;12.80;87.70;;;;;;5011580;28;20014;-64
2022/03/17 11:11:20;;;;;;;62.20;41.60;;;12.90;87.50;;;;;;5008067;28;20493;-64
2022/03/17 11:13:46;;;;;;;64.57;43.28;;;13.00;87.80;;;;;;5002027;28;20033;-63
2022/03/17 11:16:14;;;;;;;56.65;40.03;;;13.00;87.40;;;;;;5001114;28;20030;-64
2022/03/17 11:18:41;;;;;;;59.63;39.92;;;13.10;86.40;;;;;;5001528;28;20100;-64
2022/03/17 11:21:20;;;;;;;61.08;40.80;;;13.10;86.70;;;;;;5007153;28;20084;-64
2022/03/17 11:23:55;;;;;;;57.80;39.80;;;13.20;86.50;;;;;;5012000;28;20041;-64
2022/03/17 11:26:23;;;;;;;66.78;44.00;;;13.20;86.00;;;;;;5005927;28;20026;-63
2022/03/17 11:28:48;;;;;;;59.78;41.58;;;13.30;85.30;;;;;;5009195;28;20041;-64
2022/03/17 11:31:19;;;;;;;57.72;40.33;;;13.30;85.80;;;;;;5008500;28;20033;-64
2022/03/17 11:33:45;;;;;;;54.33;39.30;;;13.30;85.50;;;;;;5006175;28;20030;-66
2022/03/17 11:36:15;;;;;;;57.42;39.38;;;13.40;84.70;;;;;;5009724;28;20092;-65
2022/03/17 11:39:02;;;;;;;59.17;39.70;;;13.40;84.90;;;;;;5009323;28;20101;-64
2022/03/17 11:41:30;;;;;;;57.67;39.97;;;13.40;84.30;;;;;;5011258;28;20489;-64
2022/03/17 11:43:56;;;;;;;55.03;39.97;;;13.50;84.40;;;;;;5010232;28;20030;-64
2022/03/17 11:46:25;;;;;;;56.88;40.15;;;13.40;84.30;;;;;;5011077;28;20084;-64
2022/03/17 11:48:54;;;;;;;57.33;39.88;;;13.50;84.10;;;;;;5008143;28;20389;-64
2022/03/17 11:51:21;;;;;;;58.95;38.78;;;13.50;83.60;;;;;;5008427;28;20136;-64
2022/03/17 11:53:52;;;;;;;56.63;39.13;;;13.60;83.10;;;;;;5009587;28;20040;-65
2022/03/17 11:56:41;;;;;;;58.70;39.58;;;13.60;83.00;;;;;;5008102;28;20381;-64
2022/03/17 11:59:08;;;;;;;59.90;40.78;;;13.60;82.70;;;;;;5006359;28;20024;-66
2022/03/17 12:01:39;;;;;;;53.58;37.53;;;13.70;82.40;;;;;;5005251;28;20109;-66
2022/03/17 12:04:05;;;;;;;54.72;38.25;;;13.70;82.30;;;;;;5002792;28;20152;-65
2022/03/17 12:06:33;;;;;;;55.17;36.20;;;13.70;82.20;;;;;;5004496;28;20053;-65
2022/03/17 12:09:13;;;;;;;51.40;35.95;;;13.80;81.50;;;;;;5001358;28;20038;-63
2022/03/17 12:11:47;;;;;;;54.88;37.75;;;13.80;80.80;;;;;;5000125;28;20417;-65
2022/03/17 12:14:18;;;;;;;51.90;36.97;;;13.80;80.60;;;;;;5001870;28;20064;-64
2022/03/17 12:17:08;;;;;;;48.63;34.78;;;13.90;80.60;;;;;;5005568;28;20642;-64
2022/03/17 12:19:41;;;;;;;54.88;35.22;;;13.90;80.50;;;;;;5012061;28;20116;-65
2022/03/17 12:22:26;;;;;;;51.40;33.75;;;14.00;80.10;;;;;;5003653;28;20029;-64
2022/03/17 12:25:00;;;;;;;45.40;31.27;;;14.00;79.40;;;;;;5013605;28;20030;-66
2022/03/17 12:27:32;;;;;;;45.55;31.40;;;14.00;79.20;;;;;;4998877;28;20593;-65
2022/03/17 12:30:03;;;;;;;48.30;31.80;;;14.10;78.80;;;;;;5001123;28;20034;-66
2022/03/17 12:32:31;;;;;;;43.33;31.35;;;14.10;79.10;;;;;;4997808;28;20030;-65
2022/03/17 12:34:58;;;;;;;45.17;30.80;;;14.20;79.00;;;;;;5012691;28;20038;-65
2022/03/17 12:37:27;;;;;;;44.35;31.17;;;14.30;78.60;;;;;;5008431;28;20096;-64
2022/03/17 12:39:54;;;;;;;44.15;31.55;;;14.30;77.70;;;;;;5011098;28;20034;-65
2022/03/17 12:42:22;;;;;;;44.15;33.47;;;14.20;77.60;;;;;;5005708;28;20477;-65
2022/03/17 12:44:54;;;;;;;43.47;32.13;;;14.20;77.80;;;;;;5010999;28;20052;-65
2022/03/17 12:47:22;;;;;;;44.83;32.72;;;14.20;77.20;;;;;;5007640;28;20030;-65